Time;durP1;ratioP1;P1;durP2;ratioP2;P2;SDS_P1;SDS_P2;PMS_P1;PMS_P2;Temp;Humidity;BMP_temperature;BMP_pressure;BME280_temperature;BME280_humidity;BME280_pressure;Samples;Min_cycle;Max_cycle;Signal;HPM_P1;HPM_P2
2023/07/06 00:00:52;;;;;;;6.20;2.77;;;17.70;90.30;;;;;;5043814;28;20199;-63
2023/07/06 00:03:19;;;;;;;4.53;2.93;;;17.70;90.70;;;;;;5044178;28;20774;-63
2023/07/06 00:05:45;;;;;;;3.87;3.23;;;17.60;90.70;;;;;;5045197;28;20237;-72
2023/07/06 00:08:12;;;;;;;4.00;2.70;;;17.60;90.90;;;;;;5046218;28;20202;-62
2023/07/06 00:10:39;;;;;;;5.60;3.00;;;17.60;91.10;;;;;;5044782;28;20203;-64
2023/07/06 00:13:05;;;;;;;4.60;2.60;;;17.50;91.40;;;;;;5043724;28;20268;-63
2023/07/06 00:15:33;;;;;;;3.67;2.93;;;17.40;92.20;;;;;;5046373;28;20224;-65
2023/07/06 00:18:02;;;;;;;5.07;2.77;;;17.40;92.40;;;;;;5047241;28;20231;-64
2023/07/06 00:20:32;;;;;;;3.70;2.40;;;17.40;92.70;;;;;;5043614;28;20192;-61
2023/07/06 00:22:58;;;;;;;6.20;2.60;;;17.40;92.60;;;;;;5046160;28;20226;-63
2023/07/06 00:25:25;;;;;;;4.17;2.30;;;17.40;92.80;;;;;;5044299;28;20233;-63
2023/07/06 00:27:53;;;;;;;3.67;1.97;;;17.40;93.40;;;;;;5045651;28;20226;-63
2023/07/06 00:30:30;;;;;;;4.17;2.30;;;17.40;93.40;;;;;;5044279;28;20297;-65
2023/07/06 00:32:56;;;;;;;4.50;2.27;;;17.40;93.50;;;;;;5036956;28;20202;-62
2023/07/06 00:35:22;;;;;;;7.73;3.27;;;17.30;93.90;;;;;;5037339;28;20259;-63
2023/07/06 00:37:51;;;;;;;5.10;2.40;;;17.30;94.10;;;;;;5037328;28;20203;-63
2023/07/06 00:40:17;;;;;;;5.13;2.70;;;17.20;94.90;;;;;;5037125;28;20596;-64
2023/07/06 00:42:42;;;;;;;4.17;3.00;;;17.30;94.70;;;;;;5036777;28;20560;-63
2023/07/06 00:45:09;;;;;;;3.73;2.67;;;17.30;95.20;;;;;;5035618;28;20207;-63
2023/07/06 00:47:40;;;;;;;5.37;3.10;;;17.20;95.70;;;;;;5036620;28;20665;-63
2023/07/06 00:50:11;;;;;;;4.73;3.03;;;17.20;96.00;;;;;;5036257;28;20199;-63
2023/07/06 00:52:40;;;;;;;3.93;2.97;;;17.20;96.20;;;;;;5037417;28;20253;-62
2023/07/06 00:55:08;;;;;;;4.10;2.77;;;17.20;96.20;;;;;;5036622;28;20310;-62
2023/07/06 00:57:35;;;;;;;4.27;2.80;;;17.10;97.10;;;;;;5036768;28;20241;-62
2023/07/06 01:00:04;;;;;;;5.33;2.53;;;17.10;97.20;;;;;;5047670;28;20687;-63
2023/07/06 01:02:30;;;;;;;4.03;2.23;;;17.10;97.90;;;;;;5048386;28;20195;-62
2023/07/06 01:04:57;;;;;;;5.37;3.00;;;16.80;98.60;;;;;;5049685;28;20672;-62
2023/07/06 01:07:26;;;;;;;3.00;2.30;;;16.80;98.90;;;;;;5051706;28;20549;-62
2023/07/06 01:09:52;;;;;;;5.77;3.13;;;16.90;99.20;;;;;;5052660;28;20210;-62
2023/07/06 01:12:19;;;;;;;3.50;2.47;;;16.80;99.50;;;;;;5055004;28;20332;-63
2023/07/06 01:14:45;;;;;;;5.93;2.97;;;16.90;99.80;;;;;;5056248;28;20282;-62
2023/07/06 01:17:15;;;;;;;3.97;2.40;;;16.80;99.90;;;;;;5052145;28;20303;-63
2023/07/06 01:20:00;;;;;;;4.60;2.30;;;16.90;99.90;;;;;;5052965;28;20273;-62
2023/07/06 01:22:48;;;;;;;4.40;2.63;;;16.90;99.90;;;;;;5032401;28;20211;-63
2023/07/06 01:25:45;;;;;;;3.13;2.50;;;17.00;99.90;;;;;;5034904;28;20203;-63
2023/07/06 01:28:35;;;;;;;3.63;2.83;;;16.90;99.90;;;;;;5031896;28;20203;-63
2023/07/06 01:31:26;;;;;;;3.30;2.30;;;16.90;99.90;;;;;;5035676;28;20272;-63
2023/07/06 01:34:02;;;;;;;6.67;2.93;;;16.80;99.90;;;;;;5037190;28;20203;-64
2023/07/06 01:36:37;;;;;;;3.97;2.53;;;16.80;99.90;;;;;;5036281;28;20219;-63
2023/07/06 01:39:15;;;;;;;2.97;2.67;;;16.70;99.90;;;;;;5036066;28;20273;-63
2023/07/06 01:41:41;;;;;;;5.70;2.10;;;16.70;99.90;;;;;;5038953;28;20202;-62
2023/07/06 01:44:11;;;;;;;3.70;2.73;;;16.60;99.90;;;;;;5045989;28;20193;-63
2023/07/06 01:46:37;;;;;;;3.13;2.63;;;16.70;99.90;;;;;;5040871;28;20194;-64
2023/07/06 01:49:05;;;;;;;4.27;2.27;;;16.70;99.90;;;;;;5041034;28;20801;-63
2023/07/06 01:51:49;;;;;;;3.73;2.70;;;16.70;99.90;;;;;;5042819;28;20205;-64
2023/07/06 01:54:20;;;;;;;2.50;2.30;;;16.80;99.90;;;;;;5038447;28;20239;-64
2023/07/06 01:56:59;;;;;;;4.23;2.73;;;16.60;99.90;;;;;;5041944;28;20210;-64
2023/07/06 01:59:29;;;;;;;3.50;2.67;;;16.60;99.90;;;;;;5044119;28;20195;-64
2023/07/06 02:02:00;;;;;;;6.67;3.03;;;16.60;99.90;;;;;;5045010;28;20632;-63
2023/07/06 02:04:30;;;;;;;7.57;2.90;;;16.60;99.90;;;;;;5046507;28;20285;-63
2023/07/06 02:07:04;;;;;;;3.87;2.50;;;16.60;99.90;;;;;;5046073;28;20754;-64
2023/07/06 02:09:30;;;;;;;2.77;2.57;;;16.60;99.90;;;;;;5042915;28;20208;-63
2023/07/06 02:11:55;;;;;;;4.10;3.00;;;16.70;99.90;;;;;;5045363;28;20198;-63
2023/07/06 02:14:21;;;;;;;3.70;2.83;;;16.80;99.90;;;;;;5045243;28;20222;-63
2023/07/06 02:16:51;;;;;;;5.43;2.93;;;16.70;99.90;;;;;;5045338;28;20210;-63
2023/07/06 02:19:20;;;;;;;3.90;2.57;;;16.60;99.90;;;;;;5038411;28;20197;-64
2023/07/06 02:21:48;;;;;;;3.53;2.33;;;16.60;99.90;;;;;;5043600;28;20207;-64
2023/07/06 02:24:13;;;;;;;4.83;3.00;;;16.60;99.90;;;;;;5044434;28;20194;-64
2023/07/06 02:26:39;;;;;;;3.23;2.77;;;16.70;99.90;;;;;;5045309;28;20199;-64
2023/07/06 02:29:05;;;;;;;5.83;2.50;;;16.60;99.90;;;;;;5042471;28;20195;-64
2023/07/06 02:31:30;;;;;;;5.33;3.37;;;16.50;99.90;;;;;;5049756;28;20849;-65
2023/07/06 02:33:56;;;;;;;6.13;3.27;;;16.50;99.90;;;;;;5038436;28;20714;-65
2023/07/06 02:36:21;;;;;;;4.53;3.20;;;16.60;99.90;;;;;;5044407;28;20218;-64
2023/07/06 02:38:47;;;;;;;8.10;3.40;;;16.60;99.90;;;;;;5040167;28;20284;-64
2023/07/06 02:41:14;;;;;;;3.63;3.30;;;16.60;99.90;;;;;;5043164;28;20263;-64
2023/07/06 02:43:40;;;;;;;4.10;2.63;;;16.60;99.90;;;;;;5038406;28;20222;-63
2023/07/06 02:46:06;;;;;;;4.00;3.00;;;16.50;99.90;;;;;;5042127;28;20237;-63
2023/07/06 02:48:31;;;;;;;5.17;3.20;;;16.50;99.90;;;;;;5041483;28;20234;-63
2023/07/06 02:50:57;;;;;;;3.77;3.00;;;16.50;99.90;;;;;;5041829;28;20561;-63
2023/07/06 02:53:23;;;;;;;3.10;2.80;;;16.50;99.90;;;;;;5043217;28;20719;-63
2023/07/06 02:55:49;;;;;;;4.73;3.43;;;16.50;99.90;;;;;;5042464;28;20203;-63
2023/07/06 02:58:15;;;;;;;3.20;2.90;;;16.50;99.90;;;;;;5045366;28;20555;-63
2023/07/06 03:00:41;;;;;;;5.70;2.80;;;16.50;99.90;;;;;;5043988;28;20192;-64
2023/07/06 03:03:08;;;;;;;3.83;2.87;;;16.40;99.90;;;;;;5043461;28;20209;-64
2023/07/06 03:05:36;;;;;;;2.97;2.37;;;16.40;99.90;;;;;;5045272;28;20826;-64
2023/07/06 03:08:03;;;;;;;3.80;3.33;;;16.30;99.90;;;;;;5023772;28;20230;-66
2023/07/06 03:10:30;;;;;;;4.03;3.03;;;16.30;99.90;;;;;;5041067;28;20249;-64
2023/07/06 03:12:57;;;;;;;3.43;3.13;;;16.30;99.90;;;;;;5039484;28;20573;-63
2023/07/06 03:15:23;;;;;;;3.37;3.03;;;16.30;99.90;;;;;;5046073;28;20570;-63
2023/07/06 03:17:51;;;;;;;5.30;3.40;;;16.20;99.90;;;;;;5049121;28;20190;-63
2023/07/06 03:20:22;;;;;;;6.47;3.30;;;16.30;99.90;;;;;;5047482;28;20564;-65
2023/07/06 03:22:51;;;;;;;4.97;3.50;;;16.30;99.90;;;;;;5048107;28;20206;-64
2023/07/06 03:25:18;;;;;;;4.07;3.20;;;16.20;99.90;;;;;;5048274;28;20195;-66
2023/07/06 03:27:46;;;;;;;5.03;3.50;;;16.30;99.90;;;;;;5047825;28;20201;-65
2023/07/06 03:30:14;;;;;;;4.70;3.23;;;16.10;99.90;;;;;;5041765;28;20572;-65
2023/07/06 03:32:40;;;;;;;7.27;4.90;;;16.10;99.90;;;;;;5029437;28;20210;-65
2023/07/06 03:35:08;;;;;;;3.77;2.60;;;16.00;99.90;;;;;;5046337;28;20587;-65
2023/07/06 03:37:34;;;;;;;3.27;2.77;;;16.00;99.90;;;;;;5043723;28;20203;-64
2023/07/06 03:40:00;;;;;;;3.20;2.90;;;16.00;99.90;;;;;;5026651;28;20228;-63
2023/07/06 03:42:25;;;;;;;3.50;3.13;;;16.00;99.90;;;;;;5046941;28;20958;-63
2023/07/06 03:44:55;;;;;;;4.30;3.40;;;16.10;99.90;;;;;;5047372;28;20306;-64
2023/07/06 03:47:23;;;;;;;4.43;3.40;;;16.20;99.90;;;;;;5044767;28;21068;-65
2023/07/06 03:49:49;;;;;;;4.80;2.90;;;16.30;99.90;;;;;;5026509;28;20688;-64
2023/07/06 03:52:16;;;;;;;3.53;3.00;;;16.40;99.90;;;;;;5026505;28;20194;-65
2023/07/06 03:54:42;;;;;;;7.13;3.20;;;16.40;99.90;;;;;;5047246;28;20684;-65
2023/07/06 03:57:08;;;;;;;3.63;2.93;;;16.20;99.90;;;;;;5047548;28;20226;-62
2023/07/06 03:59:33;;;;;;;2.93;2.73;;;16.20;99.90;;;;;;5045394;28;20194;-62
2023/07/06 04:01:59;;;;;;;5.23;3.57;;;16.10;99.90;;;;;;5046485;28;20680;-62
2023/07/06 04:04:28;;;;;;;3.87;3.40;;;15.90;99.90;;;;;;5048100;28;20194;-63
2023/07/06 04:06:55;;;;;;;3.57;2.87;;;15.80;99.90;;;;;;5043213;28;20234;-63
2023/07/06 04:09:21;;;;;;;6.07;3.47;;;15.90;99.90;;;;;;5047657;28;20230;-63
2023/07/06 04:11:47;;;;;;;5.03;3.37;;;15.90;99.90;;;;;;5047027;28;20227;-64
2023/07/06 04:14:19;;;;;;;4.30;3.60;;;15.90;99.90;;;;;;5018973;28;20199;-63
2023/07/06 04:16:46;;;;;;;4.27;3.00;;;16.00;99.90;;;;;;5038795;28;20230;-63
2023/07/06 04:19:11;;;;;;;4.20;3.00;;;16.10;99.90;;;;;;5042280;28;20198;-63
2023/07/06 04:21:37;;;;;;;3.67;3.17;;;16.20;99.90;;;;;;5055020;28;20189;-63
2023/07/06 04:24:04;;;;;;;3.30;2.73;;;16.30;99.90;;;;;;5056714;28;20204;-63
2023/07/06 04:26:29;;;;;;;3.30;3.00;;;16.10;99.90;;;;;;5054432;28;20601;-63
2023/07/06 04:28:55;;;;;;;2.93;2.70;;;16.10;99.90;;;;;;5054961;28;20562;-63
2023/07/06 04:31:20;;;;;;;5.20;2.97;;;16.00;99.90;;;;;;5056484;28;20217;-64
2023/07/06 04:33:46;;;;;;;3.03;2.77;;;16.20;99.90;;;;;;5055339;28;20699;-65
2023/07/06 04:36:12;;;;;;;3.80;3.07;;;16.40;99.90;;;;;;5056169;28;20209;-63
2023/07/06 04:38:39;;;;;;;2.87;2.60;;;16.40;99.90;;;;;;5053265;28;20190;-63
2023/07/06 04:41:05;;;;;;;5.13;3.33;;;16.40;99.90;;;;;;5053090;28;20247;-62
2023/07/06 04:43:30;;;;;;;2.73;2.53;;;16.40;99.90;;;;;;5052611;28;20206;-62
2023/07/06 04:45:56;;;;;;;3.40;2.60;;;16.30;99.90;;;;;;5049004;28;20198;-62
2023/07/06 04:48:24;;;;;;;4.33;2.77;;;16.30;99.90;;;;;;5037905;28;20477;-62
2023/07/06 04:50:51;;;;;;;5.90;2.90;;;16.20;99.90;;;;;;5037167;28;20236;-62
2023/07/06 04:53:16;;;;;;;3.97;2.70;;;16.30;99.90;;;;;;5033046;28;20503;-63
2023/07/06 04:55:42;;;;;;;3.03;2.83;;;16.10;99.90;;;;;;5036931;28;20219;-62
2023/07/06 04:58:09;;;;;;;2.60;2.40;;;16.00;99.90;;;;;;5036864;28;20219;-63
2023/07/06 05:00:39;;;;;;;3.00;2.80;;;15.90;99.90;;;;;;5036650;28;20274;-63
2023/07/06 05:03:08;;;;;;;5.27;3.00;;;15.90;99.90;;;;;;5034605;28;20203;-62
2023/07/06 05:05:43;;;;;;;3.77;3.00;;;15.90;99.90;;;;;;5036297;28;20311;-64
2023/07/06 05:08:13;;;;;;;3.23;2.93;;;15.90;99.90;;;;;;5036777;28;20195;-62
2023/07/06 05:10:39;;;;;;;3.20;2.90;;;16.00;99.90;;;;;;5053785;28;20206;-77
2023/07/06 05:13:05;;;;;;;4.83;3.33;;;16.10;99.90;;;;;;5035135;28;20248;-65
2023/07/06 05:15:30;;;;;;;4.13;3.20;;;15.90;99.90;;;;;;5054385;28;20602;-64
2023/07/06 05:17:56;;;;;;;3.03;2.83;;;16.00;99.90;;;;;;5053706;28;20186;-64
2023/07/06 05:20:22;;;;;;;3.57;3.23;;;16.00;99.90;;;;;;5053361;28;20201;-64
2023/07/06 05:22:48;;;;;;;3.37;3.07;;;16.00;99.90;;;;;;5050582;28;20201;-63
2023/07/06 05:25:16;;;;;;;3.50;3.20;;;16.00;99.90;;;;;;5052877;28;20202;-64
2023/07/06 05:27:42;;;;;;;4.50;3.30;;;16.20;99.90;;;;;;5055258;28;20213;-64
2023/07/06 05:30:08;;;;;;;5.13;3.07;;;16.10;99.90;;;;;;5053489;28;20197;-64
2023/07/06 05:32:34;;;;;;;3.57;3.00;;;16.10;99.90;;;;;;5052944;28;21054;-65
2023/07/06 05:34:59;;;;;;;3.30;3.00;;;16.10;99.90;;;;;;5054374;28;20217;-64
2023/07/06 05:37:25;;;;;;;4.20;3.30;;;16.20;99.90;;;;;;5052898;28;20260;-64
2023/07/06 05:39:50;;;;;;;5.60;3.70;;;16.30;99.90;;;;;;5055430;28;20296;-64
2023/07/06 05:42:17;;;;;;;5.70;2.97;;;16.20;99.90;;;;;;5052115;28;20190;-65
2023/07/06 05:44:44;;;;;;;4.70;3.20;;;16.20;99.90;;;;;;5054821;28;20201;-65
2023/07/06 05:47:09;;;;;;;4.83;3.20;;;16.20;99.90;;;;;;5055082;28;20203;-64
2023/07/06 05:49:35;;;;;;;4.37;3.53;;;16.30;99.90;;;;;;5052628;28;20704;-65
2023/07/06 05:52:01;;;;;;;4.70;2.77;;;16.30;99.90;;;;;;5054431;28;20202;-65
2023/07/06 05:54:27;;;;;;;4.43;3.20;;;16.40;99.90;;;;;;5050648;28;20194;-64
2023/07/06 05:56:55;;;;;;;3.70;2.60;;;16.30;99.90;;;;;;5048620;28;20220;-64
2023/07/06 05:59:24;;;;;;;7.50;2.90;;;16.30;99.90;;;;;;5053590;28;20699;-65
2023/07/06 06:01:51;;;;;;;7.30;3.50;;;16.40;99.90;;;;;;5054155;28;20205;-64
2023/07/06 06:04:17;;;;;;;5.20;3.30;;;16.40;99.90;;;;;;5052781;28;20190;-64
2023/07/06 06:06:48;;;;;;;4.30;2.93;;;16.50;99.90;;;;;;5053528;28;20233;-64
2023/07/06 06:09:14;;;;;;;4.20;3.00;;;16.40;99.90;;;;;;5053707;28;20285;-64
2023/07/06 06:11:40;;;;;;;8.57;2.90;;;16.60;99.90;;;;;;5055561;28;20570;-64
2023/07/06 06:14:06;;;;;;;3.97;2.83;;;16.70;99.90;;;;;;5054147;28;20609;-63
2023/07/06 06:16:32;;;;;;;5.03;2.97;;;16.60;99.90;;;;;;5054308;28;20210;-64
2023/07/06 06:19:02;;;;;;;2.80;2.60;;;16.60;99.90;;;;;;5055184;28;20281;-64
2023/07/06 06:21:31;;;;;;;5.30;2.53;;;16.80;99.90;;;;;;5055153;28;20194;-63
2023/07/06 06:24:01;;;;;;;4.97;2.73;;;16.80;99.90;;;;;;5055590;28;20560;-64
2023/07/06 06:26:27;;;;;;;6.50;3.37;;;16.70;99.90;;;;;;5052251;28;20205;-64
2023/07/06 06:28:53;;;;;;;6.20;3.03;;;16.80;99.90;;;;;;5054142;28;20216;-64
2023/07/06 06:31:19;;;;;;;3.57;2.67;;;16.80;99.90;;;;;;5053191;28;20202;-64
2023/07/06 06:33:45;;;;;;;5.13;2.60;;;16.90;99.90;;;;;;5052265;28;20569;-64
2023/07/06 06:36:14;;;;;;;3.30;2.67;;;17.00;99.90;;;;;;5052893;28;20215;-64
2023/07/06 06:38:39;;;;;;;3.97;2.47;;;17.20;99.90;;;;;;5050701;28;20194;-64
2023/07/06 06:41:07;;;;;;;4.70;2.10;;;17.10;99.90;;;;;;5052391;28;20195;-64
2023/07/06 06:43:36;;;;;;;3.97;2.30;;;17.10;99.90;;;;;;5052786;28;20195;-63
2023/07/06 06:46:02;;;;;;;2.83;2.07;;;17.30;99.90;;;;;;5052496;28;20251;-64
2023/07/06 06:48:28;;;;;;;4.73;3.13;;;17.50;99.90;;;;;;5037036;28;20199;-64
2023/07/06 06:50:56;;;;;;;4.07;2.10;;;17.50;99.90;;;;;;5058338;28;20221;-64
2023/07/06 06:53:22;;;;;;;3.77;2.20;;;17.60;99.90;;;;;;5058748;28;20195;-63
2023/07/06 06:55:48;;;;;;;5.20;2.90;;;17.80;99.90;;;;;;5055496;28;20296;-63
2023/07/06 06:58:15;;;;;;;4.47;2.17;;;17.90;99.90;;;;;;5050109;28;20616;-64
2023/07/06 07:00:41;;;;;;;3.67;2.50;;;17.70;99.90;;;;;;5048693;28;20773;-64
2023/07/06 07:03:11;;;;;;;2.57;2.37;;;17.50;99.90;;;;;;5046713;28;20220;-65
2023/07/06 07:05:37;;;;;;;2.93;2.10;;;17.60;99.90;;;;;;5048903;28;20223;-64
2023/07/06 07:08:03;;;;;;;3.33;2.40;;;17.80;99.90;;;;;;5048863;28;20210;-61
2023/07/06 07:10:29;;;;;;;2.07;1.90;;;17.90;99.90;;;;;;5049452;28;20607;-62
2023/07/06 07:12:55;;;;;;;3.93;1.90;;;17.90;99.90;;;;;;5049056;28;20289;-62
2023/07/06 07:15:21;;;;;;;2.20;2.00;;;17.80;99.90;;;;;;5047880;28;20292;-62
2023/07/06 07:17:47;;;;;;;2.60;2.40;;;17.70;99.90;;;;;;5044453;28;20696;-63
2023/07/06 07:20:13;;;;;;;2.77;2.20;;;17.70;99.90;;;;;;5047893;28;20198;-63
2023/07/06 07:22:39;;;;;;;2.00;1.77;;;17.70;99.90;;;;;;5047596;28;20332;-64
2023/07/06 07:25:06;;;;;;;3.50;1.87;;;17.80;99.90;;;;;;5047179;28;20570;-64
2023/07/06 07:27:34;;;;;;;5.67;2.10;;;18.10;99.90;;;;;;5028525;28;20280;-63
2023/07/06 07:30:01;;;;;;;12.60;2.57;;;18.10;99.90;;;;;;5047967;28;20202;-63
2023/07/06 07:32:29;;;;;;;2.83;1.70;;;18.10;99.90;;;;;;5047483;28;20209;-64
2023/07/06 07:34:57;;;;;;;3.07;2.10;;;17.90;99.90;;;;;;5044204;28;20218;-65
2023/07/06 07:37:22;;;;;;;3.30;2.13;;;18.00;99.90;;;;;;5043638;28;20648;-62
2023/07/06 07:39:51;;;;;;;4.10;1.90;;;18.20;99.90;;;;;;5047117;28;20302;-63
2023/07/06 07:42:18;;;;;;;4.70;2.13;;;18.40;99.20;;;;;;5046986;28;20201;-64
2023/07/06 07:44:47;;;;;;;2.83;1.90;;;18.50;99.60;;;;;;5045846;28;20898;-62
2023/07/06 07:47:18;;;;;;;1.60;1.50;;;18.40;99.50;;;;;;5044642;28;20265;-63
2023/07/06 07:49:44;;;;;;;5.13;1.53;;;18.50;99.20;;;;;;5040689;28;20209;-70
2023/07/06 07:52:12;;;;;;;2.53;1.90;;;18.60;99.90;;;;;;5046168;28;20295;-70
2023/07/06 07:54:38;;;;;;;2.27;1.80;;;18.60;99.80;;;;;;5047270;28;20283;-70
2023/07/06 07:57:04;;;;;;;4.63;1.90;;;18.70;98.70;;;;;;5044918;28;20419;-68
2023/07/06 07:59:29;;;;;;;2.20;2.00;;;18.80;98.40;;;;;;5042588;28;20566;-69
2023/07/06 08:01:56;;;;;;;3.27;2.33;;;18.90;98.30;;;;;;5047107;28;20232;-70
2023/07/06 08:04:21;;;;;;;1.40;1.30;;;18.80;97.90;;;;;;5044726;28;20198;-69
2023/07/06 08:06:47;;;;;;;2.00;1.30;;;19.00;97.90;;;;;;5045153;28;20230;-69
2023/07/06 08:09:13;;;;;;;1.83;1.37;;;18.70;97.00;;;;;;5026167;28;20199;-70
2023/07/06 08:11:41;;;;;;;2.20;1.80;;;18.70;96.80;;;;;;5048124;28;20682;-71
2023/07/06 08:14:10;;;;;;;3.07;1.67;;;18.70;96.90;;;;;;5047691;28;20270;-72
2023/07/06 08:16:36;;;;;;;2.80;2.03;;;18.70;97.10;;;;;;5045302;28;20216;-72
2023/07/06 08:19:05;;;;;;;1.57;1.47;;;18.70;97.50;;;;;;5046075;28;20196;-72
2023/07/06 08:21:31;;;;;;;3.43;1.60;;;18.80;98.00;;;;;;5048460;28;20525;-74
2023/07/06 08:23:59;;;;;;;2.53;1.70;;;18.80;98.20;;;;;;5026966;28;20275;-69
2023/07/06 08:26:24;;;;;;;2.03;1.80;;;18.80;97.70;;;;;;5045523;28;20199;-70
2023/07/06 08:28:51;;;;;;;2.77;2.03;;;18.90;96.90;;;;;;5046941;28;20208;-69
2023/07/06 08:31:19;;;;;;;7.37;2.07;;;19.00;97.70;;;;;;5043439;28;20568;-67
2023/07/06 08:33:46;;;;;;;1.70;1.60;;;19.20;97.30;;;;;;5046769;28;20192;-71
2023/07/06 08:36:12;;;;;;;2.27;1.43;;;19.30;95.60;;;;;;5046538;28;20781;-71
2023/07/06 08:38:38;;;;;;;1.60;1.43;;;19.40;95.80;;;;;;5040402;28;20196;-71
2023/07/06 08:41:12;;;;;;;1.83;1.60;;;19.40;96.40;;;;;;5045372;28;20267;-71
2023/07/06 08:43:38;;;;;;;1.73;1.63;;;19.40;96.40;;;;;;5038993;28;20197;-68
2023/07/06 08:46:05;;;;;;;1.97;1.70;;;19.50;96.00;;;;;;5042815;28;20209;-77
2023/07/06 08:48:34;;;;;;;3.07;1.83;;;19.60;97.40;;;;;;5045747;28;20205;-78
2023/07/06 08:51:08;;;;;;;2.53;1.80;;;19.60;96.20;;;;;;5039492;28;20206;-76
2023/07/06 08:53:34;;;;;;;2.57;1.53;;;19.60;96.00;;;;;;5043763;28;20700;-75
2023/07/06 08:56:04;;;;;;;2.40;2.20;;;19.50;96.40;;;;;;5046118;28;20247;-75
2023/07/06 08:58:34;;;;;;;4.10;1.83;;;19.40;96.00;;;;;;5046458;28;20288;-70
2023/07/06 09:01:12;;;;;;;3.17;1.70;;;19.60;95.80;;;;;;5040438;28;20209;-70
2023/07/06 09:03:48;;;;;;;1.80;1.50;;;19.70;96.20;;;;;;5042094;28;20206;-69
2023/07/06 09:06:21;;;;;;;2.17;1.97;;;19.80;97.00;;;;;;5043898;28;20240;-69
2023/07/06 09:08:50;;;;;;;3.00;1.50;;;19.70;96.00;;;;;;5045507;28;20231;-73
2023/07/06 09:11:17;;;;;;;7.73;2.10;;;19.70;96.50;;;;;;5043567;28;20283;-76
2023/07/06 09:13:45;;;;;;;4.97;2.20;;;20.00;94.90;;;;;;5044949;28;20219;-77
2023/07/06 09:16:11;;;;;;;2.33;1.70;;;20.20;94.70;;;;;;5042241;28;20226;-71
2023/07/06 09:18:37;;;;;;;3.20;2.23;;;20.40;93.60;;;;;;5040859;28;20222;-74
2023/07/06 09:21:03;;;;;;;2.40;1.80;;;20.50;94.10;;;;;;5043156;28;20208;-74
2023/07/06 09:23:30;;;;;;;3.23;1.80;;;20.30;94.70;;;;;;5044621;28;20212;-75
2023/07/06 09:25:56;;;;;;;2.67;1.80;;;20.50;94.00;;;;;;5042408;28;20213;-81
2023/07/06 09:28:26;;;;;;;2.13;1.70;;;20.70;93.00;;;;;;5046869;28;20209;-76
2023/07/06 09:31:15;;;;;;;1.57;1.47;;;20.60;93.20;;;;;;5042448;28;20224;-72
2023/07/06 09:33:48;;;;;;;2.17;1.97;;;20.50;93.80;;;;;;5045646;28;20213;-69
2023/07/06 09:36:18;;;;;;;1.93;1.83;;;20.60;92.50;;;;;;5042376;28;20839;-72
2023/07/06 09:38:45;;;;;;;2.53;1.70;;;20.60;92.30;;;;;;5043604;28;20206;-75
2023/07/06 09:41:32;;;;;;;1.93;1.83;;;20.60;92.20;;;;;;5046936;28;20229;-71
2023/07/06 09:44:03;;;;;;;2.27;1.73;;;20.70;92.70;;;;;;5040187;28;20224;-69
2023/07/06 09:46:36;;;;;;;2.30;1.90;;;20.80;92.70;;;;;;5024776;28;20248;-69
2023/07/06 09:49:03;;;;;;;2.53;1.73;;;20.90;93.30;;;;;;5045994;28;20236;-70
2023/07/06 09:51:37;;;;;;;3.17;1.93;;;20.90;92.40;;;;;;5026388;28;20205;-68
2023/07/06 09:54:19;;;;;;;2.17;1.57;;;20.90;93.00;;;;;;5043640;28;20213;-68
2023/07/06 09:56:47;;;;;;;2.80;1.93;;;20.80;92.60;;;;;;5042913;28;20223;-69
2023/07/06 09:59:12;;;;;;;5.57;2.43;;;21.10;92.10;;;;;;5043295;28;20209;-70
2023/07/06 10:01:55;;;;;;;2.63;1.40;;;21.30;90.10;;;;;;5045785;28;20193;-72
2023/07/06 10:04:39;;;;;;;2.90;1.70;;;21.10;90.70;;;;;;5043108;28;20197;-72
2023/07/06 10:07:37;;;;;;;1.87;1.77;;;21.00;90.30;;;;;;5041845;28;20320;-73
2023/07/06 10:10:20;;;;;;;3.20;2.13;;;21.10;90.20;;;;;;5041012;28;20201;-73
2023/07/06 10:13:00;;;;;;;1.63;1.53;;;21.10;90.50;;;;;;5043487;28;20209;-68
2023/07/06 10:15:33;;;;;;;2.17;1.87;;;21.10;91.10;;;;;;5044930;28;20201;-70
2023/07/06 10:18:33;;;;;;;2.03;1.83;;;20.90;92.50;;;;;;5040538;28;20228;-69
2023/07/06 10:21:08;;;;;;;3.27;2.20;;;20.70;91.60;;;;;;5018252;28;20210;-68
2023/07/06 10:23:53;;;;;;;3.97;2.10;;;21.00;91.50;;;;;;5044641;28;20762;-68
2023/07/06 10:26:32;;;;;;;2.77;1.90;;;21.10;91.10;;;;;;5042034;28;20296;-71
2023/07/06 10:29:08;;;;;;;2.20;1.80;;;20.90;92.00;;;;;;5037398;28;20210;-70
2023/07/06 10:31:44;;;;;;;1.80;1.70;;;20.70;93.10;;;;;;5036187;28;20209;-72
2023/07/06 10:34:22;;;;;;;1.90;1.70;;;20.80;92.50;;;;;;5039296;28;20709;-73
2023/07/06 10:36:48;;;;;;;1.83;1.73;;;20.80;92.20;;;;;;5045277;28;20210;-76
2023/07/06 10:39:26;;;;;;;1.90;1.80;;;21.00;91.00;;;;;;5047395;28;20542;-74
2023/07/06 10:42:00;;;;;;;5.57;1.87;;;21.10;91.60;;;;;;5046330;28;20216;-72
2023/07/06 10:44:40;;;;;;;1.70;1.60;;;21.30;91.80;;;;;;5045589;28;20198;-75
2023/07/06 10:47:07;;;;;;;2.47;1.77;;;21.50;89.00;;;;;;5044058;28;20613;-70
2023/07/06 10:50:02;;;;;;;1.57;1.43;;;21.50;90.50;;;;;;5047575;28;20300;-70
2023/07/06 10:52:32;;;;;;;1.60;1.50;;;21.80;89.30;;;;;;5047480;28;20556;-70
2023/07/06 10:54:57;;;;;;;2.47;1.87;;;21.80;89.00;;;;;;5045194;28;20206;-69
2023/07/06 10:57:33;;;;;;;1.70;1.60;;;21.70;87.10;;;;;;5047509;28;20225;-69
2023/07/06 11:00:15;;;;;;;3.23;1.60;;;21.60;88.60;;;;;;5038731;28;20187;-69
2023/07/06 11:02:43;;;;;;;3.60;1.70;;;21.10;88.80;;;;;;5042407;28;20232;-69
2023/07/06 11:05:29;;;;;;;1.60;1.40;;;20.90;90.10;;;;;;5043713;28;20218;-69
2023/07/06 11:07:57;;;;;;;1.23;1.13;;;20.80;89.90;;;;;;5046557;28;20212;-70
2023/07/06 11:10:28;;;;;;;1.73;1.63;;;20.90;90.00;;;;;;5047873;28;20194;-69
2023/07/06 11:13:02;;;;;;;1.47;1.40;;;21.20;89.00;;;;;;5047257;28;20288;-70
2023/07/06 11:15:38;;;;;;;2.33;2.13;;;21.30;89.30;;;;;;5042183;28;20785;-69
2023/07/06 11:18:14;;;;;;;1.67;1.57;;;21.40;88.10;;;;;;5043385;28;20760;-71
2023/07/06 11:20:43;;;;;;;2.00;1.90;;;21.30;88.50;;;;;;5045933;28;20272;-70
2023/07/06 11:23:17;;;;;;;2.03;1.83;;;21.20;88.10;;;;;;5047162;28;20312;-67
2023/07/06 11:25:47;;;;;;;2.20;2.00;;;21.10;87.70;;;;;;5044613;28;20281;-66
2023/07/06 11:28:14;;;;;;;2.10;1.43;;;21.30;87.80;;;;;;5042900;28;20566;-67
2023/07/06 11:31:28;;;;;;;1.80;1.60;;;21.40;87.10;;;;;;5052724;28;20202;-69
2023/07/06 11:34:07;;;;;;;3.30;1.67;;;21.50;86.80;;;;;;5050882;28;20198;-70
2023/07/06 11:36:50;;;;;;;1.97;1.57;;;21.40;87.10;;;;;;5055529;28;20236;-71
2023/07/06 11:39:52;;;;;;;2.03;1.93;;;21.40;88.70;;;;;;5056439;28;20209;-71
2023/07/06 11:42:47;;;;;;;2.23;2.00;;;21.40;87.90;;;;;;5056292;28;20291;-69
2023/07/06 11:45:27;;;;;;;3.03;1.90;;;21.40;87.50;;;;;;5004164;28;20209;-70
2023/07/06 11:48:12;;;;;;;1.83;1.73;;;21.20;88.90;;;;;;5056539;28;20719;-70
2023/07/06 11:50:39;;;;;;;2.50;1.97;;;21.10;90.10;;;;;;5057511;28;20607;-68
2023/07/06 11:53:17;;;;;;;2.77;2.03;;;21.10;87.80;;;;;;5053650;28;20918;-72
2023/07/06 11:55:54;;;;;;;1.90;1.70;;;21.30;88.20;;;;;;5050360;28;20329;-69
2023/07/06 11:58:53;;;;;;;3.37;1.47;;;21.90;87.40;;;;;;5046260;28;20756;-75
2023/07/06 12:01:32;;;;;;;2.63;2.13;;;21.90;88.20;;;;;;5027361;28;20193;-74
2023/07/06 12:04:02;;;;;;;3.23;2.50;;;21.90;87.30;;;;;;5044575;28;20225;-70
2023/07/06 12:06:28;;;;;;;1.77;1.67;;;22.10;85.30;;;;;;5041625;28;20631;-67
2023/07/06 12:08:59;;;;;;;2.27;2.00;;;22.20;85.10;;;;;;5046986;28;20728;-69
2023/07/06 12:11:25;;;;;;;1.88;1.77;;;22.30;85.50;;;;;;5042754;28;20214;-67
2023/07/06 12:13:53;;;;;;;2.33;1.83;;;23.00;83.10;;;;;;5035568;28;20194;-68
2023/07/06 12:16:24;;;;;;;3.47;2.05;;;23.50;82.20;;;;;;5037669;28;20254;-67
2023/07/06 12:19:04;;;;;;;2.05;1.95;;;24.30;83.00;;;;;;5037813;28;20282;-67
2023/07/06 12:21:32;;;;;;;1.92;1.80;;;24.10;82.70;;;;;;5037395;28;20705;-67
2023/07/06 12:24:06;;;;;;;4.72;1.90;;;24.10;82.70;;;;;;5037613;28;20193;-67
2023/07/06 12:26:34;;;;;;;2.10;1.90;;;24.00;81.60;;;;;;5052020;28;20231;-67
2023/07/06 12:29:02;;;;;;;2.50;1.92;;;24.00;82.80;;;;;;5052836;28;20628;-67
2023/07/06 12:31:30;;;;;;;2.35;2.08;;;24.40;78.40;;;;;;5053340;28;20262;-69
2023/07/06 12:34:03;;;;;;;3.05;1.80;;;24.10;76.90;;;;;;5047222;28;20199;-67
2023/07/06 12:36:33;;;;;;;2.20;2.00;;;23.50;78.30;;;;;;5041739;28;20245;-67
2023/07/06 12:39:00;;;;;;;3.03;1.85;;;23.10;77.60;;;;;;5046550;28;20203;-68
2023/07/06 12:41:31;;;;;;;4.07;2.08;;;22.90;79.40;;;;;;5047615;28;20187;-68
2023/07/06 12:43:57;;;;;;;1.70;1.60;;;22.30;79.90;;;;;;5038701;28;20793;-67
2023/07/06 12:46:22;;;;;;;1.98;1.77;;;22.00;76.10;;;;;;5039262;28;20201;-67
2023/07/06 12:48:52;;;;;;;1.53;1.40;;;22.00;76.10;;;;;;5039742;28;20190;-72
2023/07/06 12:51:21;;;;;;;1.60;1.50;;;22.00;75.00;;;;;;5036685;28;20206;-72
2023/07/06 12:53:49;;;;;;;1.50;1.40;;;22.00;75.70;;;;;;5047956;28;20907;-67
2023/07/06 12:56:17;;;;;;;2.28;2.08;;;22.30;74.50;;;;;;5054839;28;20217;-67
2023/07/06 12:58:54;;;;;;;3.23;2.20;;;22.60;75.90;;;;;;5056209;28;20190;-69
2023/07/06 13:01:25;;;;;;;2.95;1.67;;;23.00;77.40;;;;;;5036805;28;20248;-70